createdAt,value
2022-08-30T00:00:38.320Z,102256.72
2022-08-30T00:03:11.074Z,102263.00
2022-08-30T00:05:40.931Z,102262.13
2022-08-30T00:08:13.481Z,102259.50
2022-08-30T00:10:44.628Z,102248.88
2022-08-30T00:13:15.726Z,102258.59
2022-08-30T00:15:45.733Z,102251.53
2022-08-30T00:18:15.875Z,102250.59
2022-08-30T00:20:45.677Z,102247.94
2022-08-30T00:23:18.964Z,102252.38
2022-08-30T00:25:49.035Z,102255.84
2022-08-30T00:28:18.765Z,102258.50
2022-08-30T00:30:49.845Z,102258.50
2022-08-30T00:33:20.509Z,102255.72
2022-08-30T00:35:50.535Z,102253.03
2022-08-30T00:38:24.439Z,102246.84
2022-08-30T00:40:54.877Z,102247.72
2022-08-30T00:43:27.754Z,102251.22
2022-08-30T00:45:58.507Z,102256.53
2022-08-30T00:48:28.813Z,102251.16
2022-08-30T00:51:02.576Z,102256.47
2022-08-30T00:53:38.277Z,102260.00
2022-08-30T00:56:09.293Z,102256.47
2022-08-30T00:58:43.058Z,102252.88
2022-08-30T01:01:13.353Z,102252.88
2022-08-30T01:03:44.537Z,102255.50
2022-08-30T01:06:15.865Z,102255.50
2022-08-30T01:08:49.952Z,102258.19
2022-08-30T01:11:23.557Z,102256.44
2022-08-30T01:13:54.798Z,102258.25
2022-08-30T01:16:25.577Z,102259.13
2022-08-30T01:19:00.944Z,102260.84
2022-08-30T01:21:36.983Z,102262.63
2022-08-30T01:24:11.651Z,102265.28
2022-08-30T01:26:41.442Z,102259.00
2022-08-30T01:29:16.342Z,102265.25
2022-08-30T01:31:46.536Z,102263.50
2022-08-30T01:34:16.271Z,102267.91
2022-08-30T01:36:49.038Z,102268.75
2022-08-30T01:39:21.738Z,102265.13
2022-08-30T01:41:51.521Z,102266.88
2022-08-30T01:44:21.253Z,102274.84
2022-08-30T01:46:51.227Z,102281.91
2022-08-30T01:49:27.854Z,102281.00
2022-08-30T01:52:00.498Z,102279.22
2022-08-30T01:54:38.031Z,102282.81
2022-08-30T01:57:10.054Z,102278.41
2022-08-30T01:59:42.680Z,102286.50
2022-08-30T02:02:12.997Z,102286.53
2022-08-30T02:04:42.699Z,102286.53
2022-08-30T02:07:12.660Z,102287.50
2022-08-30T02:09:46.143Z,102282.25
2022-08-30T02:12:16.344Z,102285.00
2022-08-30T02:14:46.157Z,102286.00
2022-08-30T02:17:19.560Z,102285.13
2022-08-30T02:19:49.489Z,102287.84
2022-08-30T02:22:21.038Z,102287.88
2022-08-30T02:24:53.369Z,102281.69
2022-08-30T02:27:23.785Z,102285.25
2022-08-30T02:29:53.504Z,102276.38
2022-08-30T02:32:23.223Z,102276.38
2022-08-30T02:34:52.943Z,102279.88
2022-08-30T02:37:22.668Z,102275.38
2022-08-30T02:39:55.068Z,102274.47
2022-08-30T02:42:24.796Z,102281.53
2022-08-30T02:44:54.682Z,102276.13
2022-08-30T02:47:24.411Z,102271.66
2022-08-30T02:49:54.144Z,102279.66
2022-08-30T02:52:27.862Z,102277.84
2022-08-30T02:55:00.382Z,102278.72
2022-08-30T02:57:30.166Z,102272.50
2022-08-30T02:59:59.987Z,102274.25
2022-08-30T03:02:30.443Z,102282.25
2022-08-30T03:05:00.410Z,102280.44
2022-08-30T03:07:31.265Z,102273.31
2022-08-30T03:10:03.863Z,102283.06
2022-08-30T03:12:34.530Z,102279.47
2022-08-30T03:15:04.895Z,102284.81
2022-08-30T03:17:34.644Z,102283.06
2022-08-30T03:20:04.588Z,102283.00
2022-08-30T03:22:34.373Z,102281.22
2022-08-30T03:25:07.484Z,102286.53
2022-08-30T03:27:37.542Z,102288.25
2022-08-30T03:30:09.013Z,102289.03
2022-08-30T03:32:39.352Z,102282.72
2022-08-30T03:35:09.980Z,102281.75
2022-08-30T03:37:40.061Z,102285.97
2022-08-30T03:40:15.356Z,102294.75
2022-08-30T03:42:45.331Z,102291.06
2022-08-30T03:45:16.266Z,102295.38
2022-08-30T03:47:46.243Z,102295.22
2022-08-30T03:50:18.404Z,102294.22
2022-08-30T03:52:49.105Z,102292.44
2022-08-30T03:55:21.631Z,102292.44
2022-08-30T03:57:51.387Z,102294.19
2022-08-30T04:00:22.016Z,102294.22
2022-08-30T04:02:51.747Z,102289.75
2022-08-30T04:05:23.074Z,102292.44
2022-08-30T04:07:52.831Z,102299.53
2022-08-30T04:10:26.615Z,102294.22
2022-08-30T04:12:56.928Z,102303.97
2022-08-30T04:15:26.837Z,102298.63
2022-08-30T04:17:56.706Z,102302.16
2022-08-30T04:20:27.524Z,102295.00
2022-08-30T04:22:57.382Z,102293.16
2022-08-30T04:25:29.719Z,102301.00
2022-08-30T04:27:59.431Z,102300.72
2022-08-30T04:30:29.175Z,102303.13
2022-08-30T04:32:59.098Z,102293.31
2022-08-30T04:35:29.735Z,102307.41
2022-08-30T04:37:59.955Z,102295.03
2022-08-30T04:40:32.682Z,102308.28
2022-08-30T04:43:02.469Z,102310.00
2022-08-30T04:45:32.227Z,102314.34
2022-08-30T04:48:01.992Z,102312.50
2022-08-30T04:50:31.721Z,102314.25
2022-08-30T04:53:01.507Z,102320.31
2022-08-30T04:55:34.116Z,102317.66
2022-08-30T04:58:06.028Z,102321.03
2022-08-30T05:00:37.352Z,102326.28
2022-08-30T05:03:07.655Z,102327.97
2022-08-30T05:05:43.155Z,102327.81
2022-08-30T05:08:15.541Z,102331.22
2022-08-30T05:10:49.900Z,102331.97
2022-08-30T05:13:30.478Z,102337.19
2022-08-30T05:16:07.879Z,102336.16
2022-08-30T05:18:38.235Z,102333.41
2022-08-30T05:21:10.331Z,102335.09
2022-08-30T05:23:40.325Z,102329.75
2022-08-30T05:26:15.432Z,102333.25
2022-08-30T05:28:45.281Z,102336.72
2022-08-30T05:31:18.725Z,102340.25
2022-08-30T05:33:49.699Z,102350.88
2022-08-30T05:36:21.460Z,102345.63
2022-08-30T05:38:51.499Z,102346.59
2022-08-30T05:41:26.659Z,102348.38
2022-08-30T05:43:58.435Z,102343.97
2022-08-30T05:49:22.879Z,102339.69
2022-08-30T05:51:52.631Z,102337.91
2022-08-30T05:54:22.355Z,102337.06
2022-08-30T05:56:54.778Z,102343.31
2022-08-30T05:59:24.538Z,102348.63
2022-08-30T06:01:54.364Z,102354.91
2022-08-30T06:04:24.107Z,102355.06
2022-08-30T06:06:54.084Z,102356.25
2022-08-30T06:09:23.812Z,102358.34
2022-08-30T06:11:56.154Z,102356.81
2022-08-30T06:14:26.181Z,102358.00
2022-08-30T06:16:55.905Z,102358.41
2022-08-30T06:19:25.693Z,102357.81
2022-08-30T06:21:55.520Z,102366.97
2022-08-30T06:24:35.980Z,102365.56
2022-08-30T06:27:14.085Z,102362.38
2022-08-30T06:29:43.780Z,102361.78
2022-08-30T06:32:13.580Z,102363.00
2022-08-30T06:34:43.339Z,102364.97
2022-08-30T06:37:29.706Z,102366.13
2022-08-30T06:40:00.324Z,102369.91
2022-08-30T06:42:34.535Z,102366.63
2022-08-30T06:45:10.557Z,102361.50
2022-08-30T06:47:41.541Z,102362.66
2022-08-30T06:50:16.403Z,102363.78
2022-08-30T06:52:48.078Z,102362.25
2022-08-30T06:55:19.578Z,102359.94
2022-08-30T06:57:52.235Z,102363.03
2022-08-30T07:00:22.401Z,102363.47
2022-08-30T07:02:52.162Z,102359.50
2022-08-30T07:05:23.922Z,102359.94
2022-08-30T07:07:55.288Z,102369.31
2022-08-30T07:10:25.223Z,102367.94
2022-08-30T07:12:57.630Z,102357.50
2022-08-30T07:15:27.678Z,102353.47
2022-08-30T07:18:11.560Z,102360.81
2022-08-30T07:20:41.541Z,102345.94
2022-08-30T07:23:12.157Z,102356.88
2022-08-30T07:25:43.804Z,102357.09
2022-08-30T07:28:16.553Z,102355.50
2022-08-30T07:30:46.584Z,102352.09
2022-08-30T07:33:16.414Z,102358.50
2022-08-30T07:35:46.764Z,102357.81
2022-08-30T07:38:16.701Z,102365.13
2022-08-30T07:40:46.482Z,102368.91
2022-08-30T07:43:19.108Z,102367.19
2022-08-30T07:45:49.198Z,102369.81
2022-08-30T07:48:19.027Z,102370.63
2022-08-30T07:50:52.600Z,102378.69
2022-08-30T07:53:26.572Z,102381.34
2022-08-30T07:55:56.352Z,102377.63
2022-08-30T07:58:29.757Z,102386.41
2022-08-30T08:00:59.966Z,102386.31
2022-08-30T08:03:29.871Z,102374.69
2022-08-30T08:05:59.996Z,102373.81
2022-08-30T08:08:29.737Z,102363.94
2022-08-30T08:11:00.064Z,102365.69
2022-08-30T08:13:32.839Z,102379.13
2022-08-30T08:16:06.656Z,102374.69
2022-08-30T08:18:36.562Z,102381.75
2022-08-30T08:21:06.828Z,102380.81
2022-08-30T08:23:36.801Z,102379.03
2022-08-30T08:26:07.307Z,102393.16
2022-08-30T08:28:39.788Z,102384.06
2022-08-30T08:31:17.500Z,102380.44
2022-08-30T08:33:47.551Z,102386.72
2022-08-30T08:36:18.682Z,102388.63
2022-08-30T08:38:48.636Z,102377.84
2022-08-30T08:41:33.699Z,102377.81
2022-08-30T08:44:11.565Z,102381.38
2022-08-30T08:46:51.585Z,102377.94
2022-08-30T08:49:24.907Z,102397.75
2022-08-30T08:52:07.317Z,102395.31
2022-08-30T08:54:43.226Z,102403.59
2022-08-30T08:57:16.519Z,102391.19
2022-08-30T08:59:51.242Z,102396.56
2022-08-30T09:02:27.454Z,102385.94
2022-08-30T09:05:01.310Z,102388.72
2022-08-30T09:07:35.130Z,102385.19
2022-08-30T09:10:05.510Z,102378.97
2022-08-30T09:12:35.434Z,102382.56
2022-08-30T09:15:14.709Z,102386.06
2022-08-30T09:17:54.891Z,102376.25
2022-08-30T09:20:33.605Z,102380.72
2022-08-30T09:23:24.724Z,102376.19
2022-08-30T09:25:56.539Z,102385.16
2022-08-30T09:28:29.554Z,102379.00
2022-08-30T09:31:12.493Z,102388.97
2022-08-30T09:33:42.416Z,102395.31
2022-08-30T09:36:29.758Z,102380.16
2022-08-30T09:39:05.231Z,102388.13
2022-08-30T09:41:41.419Z,102385.38
2022-08-30T09:44:14.404Z,102389.81
2022-08-30T09:46:52.418Z,102378.97
2022-08-30T09:49:33.012Z,102378.91
2022-08-30T09:52:20.609Z,102390.50
2022-08-30T09:55:05.284Z,102364.56
2022-08-30T09:57:42.636Z,102372.59
2022-08-30T10:00:18.157Z,102370.78
2022-08-30T10:03:13.465Z,102379.69
2022-08-30T10:05:53.081Z,102372.44
2022-08-30T10:08:32.012Z,102361.59
2022-08-30T10:11:05.024Z,102372.25
2022-08-30T10:13:58.452Z,102357.94
2022-08-30T10:16:38.669Z,102379.41
2022-08-30T10:19:23.336Z,102374.91
2022-08-30T10:22:02.132Z,102371.28
2022-08-30T10:24:38.259Z,102369.56
2022-08-30T10:27:13.765Z,102375.91
2022-08-30T10:29:49.911Z,102365.19
2022-08-30T10:32:25.245Z,102370.66
2022-08-30T10:35:03.214Z,102369.81
2022-08-30T10:37:35.471Z,102381.38
2022-08-30T10:40:26.202Z,102376.06
2022-08-30T10:42:56.971Z,102375.16
2022-08-30T10:45:31.748Z,102383.16
2022-08-30T10:48:09.969Z,102373.28
2022-08-30T10:50:48.878Z,102378.69
2022-08-30T10:53:21.689Z,102371.59
2022-08-30T10:55:56.338Z,102365.41
2022-08-30T10:58:26.802Z,102381.56
2022-08-30T11:01:26.721Z,102370.00
2022-08-30T11:04:28.495Z,102368.09
2022-08-30T11:07:10.347Z,102363.50
2022-08-30T11:10:04.047Z,102367.94
2022-08-30T11:12:41.605Z,102358.97
2022-08-30T11:15:21.464Z,102365.97
2022-08-30T11:17:59.546Z,102360.44
2022-08-30T11:20:38.057Z,102359.56
2022-08-30T11:23:23.417Z,102354.16
2022-08-30T11:25:58.171Z,102365.72
2022-08-30T11:29:03.200Z,102351.47
2022-08-30T11:31:40.660Z,102359.53
2022-08-30T11:34:12.166Z,102348.84
2022-08-30T11:37:09.518Z,102347.09
2022-08-30T11:40:01.998Z,102347.13
2022-08-30T11:42:37.596Z,102341.84
2022-08-30T11:45:41.585Z,102342.75
2022-08-30T11:48:53.685Z,102344.53
2022-08-30T11:52:23.562Z,102347.91
2022-08-30T11:55:01.272Z,102331.69
2022-08-30T11:57:45.518Z,102337.09
2022-08-30T12:00:34.731Z,102340.78
2022-08-30T12:03:07.079Z,102339.94
2022-08-30T12:05:59.808Z,102349.00
2022-08-30T12:08:55.184Z,102341.00
2022-08-30T12:11:55.866Z,102341.06
2022-08-30T12:14:54.853Z,102338.50
2022-08-30T12:17:41.565Z,102345.59
2022-08-30T12:20:21.440Z,102336.69
2022-08-30T12:22:52.366Z,102336.69
2022-08-30T12:25:31.782Z,102335.84
2022-08-30T12:28:24.097Z,102336.81
2022-08-30T12:30:56.868Z,102338.69
2022-08-30T12:33:40.124Z,102331.59
2022-08-30T12:36:15.926Z,102323.59
2022-08-30T12:38:46.086Z,102331.75
2022-08-30T12:41:23.537Z,102331.78
2022-08-30T12:43:56.077Z,102330.03
2022-08-30T12:46:29.095Z,102333.56
2022-08-30T12:48:59.813Z,102319.22
2022-08-30T12:51:41.189Z,102321.88
2022-08-30T12:54:22.883Z,102336.13
2022-08-30T12:57:25.658Z,102312.88
2022-08-30T13:00:02.604Z,102317.31
2022-08-30T13:02:47.433Z,102304.72
2022-08-30T13:05:40.288Z,102305.63
2022-08-30T13:08:22.338Z,102316.34
2022-08-30T13:10:54.843Z,102310.13
2022-08-30T13:13:34.443Z,102311.91
2022-08-30T13:16:24.981Z,102313.72
2022-08-30T13:19:18.695Z,102302.16
2022-08-30T13:21:53.357Z,102305.75
2022-08-30T13:24:25.570Z,102303.06
2022-08-30T13:26:56.964Z,102304.81
2022-08-30T13:29:29.800Z,102305.66
2022-08-30T13:32:00.523Z,102295.81
2022-08-30T13:34:35.450Z,102292.25
2022-08-30T13:37:44.354Z,102298.56
2022-08-30T13:40:00.175Z,102304.78
2022-08-30T13:42:33.763Z,102300.25
2022-08-30T13:45:03.798Z,102299.34
2022-08-30T13:47:35.027Z,102296.66
2022-08-30T13:50:09.810Z,102292.19
2022-08-30T13:52:39.550Z,102293.97
2022-08-30T13:55:10.729Z,102294.84
2022-08-30T13:57:57.624Z,102287.69
2022-08-30T14:00:31.355Z,102293.00
2022-08-30T14:03:05.157Z,102296.59
2022-08-30T14:05:49.296Z,102285.84
2022-08-30T14:11:12.788Z,102291.91
2022-08-30T14:16:34.217Z,102288.22
2022-08-30T14:19:05.650Z,102287.31
2022-08-30T14:21:38.685Z,102295.38
2022-08-30T14:24:08.900Z,102290.91
2022-08-30T14:26:40.544Z,102285.56
2022-08-30T14:29:12.776Z,102289.19
2022-08-30T14:31:43.580Z,102291.00
2022-08-30T14:34:14.733Z,102284.78
2022-08-30T14:36:48.845Z,102289.22
2022-08-30T14:39:23.064Z,102287.31
2022-08-30T14:41:55.307Z,102279.28
2022-08-30T14:44:26.810Z,102283.75
2022-08-30T14:46:57.451Z,102282.91
2022-08-30T14:49:27.880Z,102269.63
2022-08-30T14:52:00.274Z,102270.50
2022-08-30T14:54:31.916Z,102270.47
2022-08-30T14:57:01.678Z,102278.47
2022-08-30T14:59:31.711Z,102275.81
2022-08-30T15:02:01.809Z,102275.72
2022-08-30T15:04:32.149Z,102276.53
2022-08-30T15:07:04.553Z,102272.00
2022-08-30T15:09:34.727Z,102268.41
2022-08-30T15:12:05.289Z,102277.28
2022-08-30T15:14:38.085Z,102272.81
2022-08-30T15:17:07.866Z,102279.94
2022-08-30T15:19:39.616Z,102270.09
2022-08-30T15:22:11.958Z,102272.69
2022-08-30T15:24:41.849Z,102264.63
2022-08-30T15:27:11.925Z,102278.03
2022-08-30T15:29:42.387Z,102277.16
2022-08-30T15:32:12.183Z,102271.81
2022-08-30T15:34:41.896Z,102273.56
2022-08-30T15:37:22.310Z,102262.84
2022-08-30T15:39:52.180Z,102263.66
2022-08-30T15:42:22.695Z,102258.31
2022-08-30T15:44:53.868Z,102272.53
2022-08-30T15:47:25.483Z,102258.22
2022-08-30T15:49:58.376Z,102265.28
2022-08-30T15:52:31.712Z,102259.00
2022-08-30T15:55:02.120Z,102266.06
2022-08-30T15:57:32.009Z,102258.88
2022-08-30T16:00:02.118Z,102260.63
2022-08-30T16:02:36.164Z,102263.38
2022-08-30T16:05:06.865Z,102257.09
2022-08-30T16:07:40.971Z,102255.28
2022-08-30T16:10:12.337Z,102254.41
2022-08-30T16:12:42.497Z,102251.72
2022-08-30T16:15:14.005Z,102261.44
2022-08-30T16:17:43.867Z,102252.44
2022-08-30T16:20:14.159Z,102252.34
2022-08-30T16:22:47.139Z,102248.66
2022-08-30T16:25:17.376Z,102259.28
2022-08-30T16:27:48.180Z,102255.63
2022-08-30T16:30:18.036Z,102242.25
2022-08-30T16:32:49.471Z,102244.88
2022-08-30T16:35:19.494Z,102249.34
2022-08-30T16:37:52.193Z,102248.44
2022-08-30T16:40:22.005Z,102239.53
2022-08-30T16:42:52.196Z,102232.47
2022-08-30T16:45:22.073Z,102249.25
2022-08-30T16:47:53.920Z,102242.06
2022-08-30T16:50:24.261Z,102240.25
2022-08-30T16:52:56.624Z,102241.13
2022-08-30T16:55:26.869Z,102238.44
2022-08-30T16:57:56.580Z,102241.13
2022-08-30T17:00:26.841Z,102236.63
2022-08-30T17:02:57.713Z,102249.06
2022-08-30T17:05:28.524Z,102239.25
2022-08-30T17:08:03.402Z,102237.47
2022-08-30T17:10:33.483Z,102227.69
2022-08-30T17:13:03.414Z,102238.38
2022-08-30T17:15:34.370Z,102229.47
2022-08-30T17:18:04.240Z,102234.81
2022-08-30T17:20:35.122Z,102234.72
2022-08-30T17:23:07.980Z,102234.72
2022-08-30T17:25:38.058Z,102237.34
2022-08-30T17:28:15.918Z,102240.91
2022-08-30T17:30:45.672Z,102246.22
2022-08-30T17:33:15.418Z,102238.19
2022-08-30T17:35:47.915Z,102247.94
2022-08-30T17:38:21.124Z,102252.38
2022-08-30T17:40:50.887Z,102246.09
2022-08-30T17:43:22.065Z,102255.84
2022-08-30T17:45:51.826Z,102250.44
2022-08-30T17:48:21.553Z,102250.41
2022-08-30T17:50:58.010Z,102269.06
2022-08-30T17:53:30.443Z,102263.63
2022-08-30T17:56:00.206Z,102262.66
2022-08-30T17:58:30.004Z,102266.16
2022-08-30T18:01:11.686Z,102267.03
2022-08-30T18:03:42.173Z,102267.84
2022-08-30T18:06:15.726Z,102259.78
2022-08-30T18:08:48.869Z,102269.47
2022-08-30T18:11:19.914Z,102277.41
2022-08-30T18:13:49.724Z,102280.91
2022-08-30T18:16:21.723Z,102276.38
2022-08-30T18:18:57.428Z,102277.16
2022-08-30T18:21:28.393Z,102284.22
2022-08-30T18:24:00.966Z,102288.63
2022-08-30T18:26:32.035Z,102297.41
2022-08-30T18:29:02.204Z,102296.47
2022-08-30T18:31:32.223Z,102299.97
2022-08-30T18:34:02.957Z,102296.34
2022-08-30T18:36:33.317Z,102298.97
2022-08-30T18:39:06.538Z,102308.72
2022-08-30T18:41:39.191Z,102304.22
2022-08-30T18:44:27.258Z,102301.47
2022-08-30T18:47:00.147Z,102310.25
2022-08-30T18:49:32.520Z,102306.66
2022-08-30T18:52:03.129Z,102305.75
2022-08-30T18:54:40.346Z,102314.66
2022-08-30T18:57:10.496Z,102323.47
2022-08-30T18:59:41.999Z,102313.59
2022-08-30T19:02:14.849Z,102318.88
2022-08-30T19:04:45.450Z,102319.66
2022-08-30T19:07:16.992Z,102327.59
2022-08-30T19:09:51.372Z,102321.38
2022-08-30T19:12:21.123Z,102323.94
2022-08-30T19:14:51.008Z,102327.47
2022-08-30T19:17:20.933Z,102329.25
2022-08-30T19:19:52.375Z,102329.25
2022-08-30T19:22:24.519Z,102324.81
2022-08-30T19:25:01.177Z,102332.75
2022-08-30T19:27:37.423Z,102338.91
2022-08-30T19:30:13.550Z,102342.47
2022-08-30T19:32:47.206Z,102337.06
2022-08-30T19:35:17.810Z,102341.50
2022-08-30T19:37:49.380Z,102343.22
2022-08-30T19:40:22.964Z,102345.84
2022-08-30T19:42:53.279Z,102340.44
2022-08-30T19:45:24.107Z,102352.00
2022-08-30T19:47:54.903Z,102352.00
2022-08-30T19:50:25.161Z,102356.34
2022-08-30T19:52:55.393Z,102363.38
2022-08-30T19:55:31.342Z,102357.13
2022-08-30T19:58:01.656Z,102358.81
2022-08-30T20:00:32.075Z,102359.66
2022-08-30T20:03:02.313Z,102359.53
2022-08-30T20:05:33.054Z,102360.38
2022-08-30T20:08:02.967Z,102364.81
2022-08-30T20:10:36.169Z,102357.75
2022-08-30T20:13:07.151Z,102356.81
2022-08-30T20:15:39.039Z,102349.72
2022-08-30T20:18:14.180Z,102354.19
2022-08-30T20:20:48.550Z,102365.69
2022-08-30T20:26:12.630Z,102359.53
2022-08-30T20:28:43.200Z,102361.44
2022-08-30T20:31:13.393Z,102363.28
2022-08-30T20:33:43.143Z,102360.66
2022-08-30T20:36:13.429Z,102367.84
2022-08-30T20:38:43.194Z,102369.69
2022-08-30T20:41:18.134Z,102367.09
2022-08-30T20:43:48.961Z,102372.50
2022-08-30T20:46:21.120Z,102370.78
2022-08-30T20:48:51.058Z,102366.34
2022-08-30T20:51:23.522Z,102368.16
2022-08-30T20:53:53.600Z,102363.72
2022-08-30T20:56:27.811Z,102371.75
2022-08-30T20:58:58.004Z,102367.28
2022-08-30T21:01:28.347Z,102362.91
2022-08-30T21:03:58.223Z,102365.56
2022-08-30T21:06:27.975Z,102370.06
2022-08-30T21:08:57.721Z,102371.00
2022-08-30T21:11:31.742Z,102370.13
2022-08-30T21:14:01.768Z,102376.34
2022-08-30T21:16:34.396Z,102363.03
2022-08-30T21:19:04.786Z,102367.47
2022-08-30T21:21:34.716Z,102367.47
2022-08-30T21:24:10.201Z,102368.34
2022-08-30T21:26:43.998Z,102371.00
2022-08-30T21:29:15.481Z,102381.66
2022-08-30T21:31:45.294Z,102375.41
2022-08-30T21:34:17.825Z,102374.47
2022-08-30T21:36:48.624Z,102383.41
2022-08-30T21:39:22.234Z,102388.72
2022-08-30T21:41:57.086Z,102387.84
2022-08-30T21:44:29.542Z,102396.66
2022-08-30T21:46:59.271Z,102397.56
2022-08-30T21:49:29.047Z,102397.56
2022-08-30T21:51:59.163Z,102402.00
2022-08-30T21:54:31.441Z,102396.66
2022-08-30T21:57:05.420Z,102400.22
2022-08-30T21:59:35.256Z,102397.50
2022-08-30T22:02:04.941Z,102396.66
2022-08-30T22:04:34.649Z,102405.56
2022-08-30T22:07:06.533Z,102412.66
2022-08-30T22:09:36.227Z,102408.16
2022-08-30T22:12:10.165Z,102413.44
2022-08-30T22:14:41.197Z,102409.81
2022-08-30T22:17:11.003Z,102407.13
2022-08-30T22:19:40.776Z,102416.88
2022-08-30T22:22:11.232Z,102409.66
2022-08-30T22:24:41.400Z,102420.22
2022-08-30T22:27:13.730Z,102421.06
2022-08-30T22:29:43.774Z,102421.84
2022-08-30T22:32:13.552Z,102425.31
2022-08-30T22:34:43.297Z,102428.75
2022-08-30T22:37:13.020Z,102430.38
2022-08-30T22:39:42.815Z,102433.84
2022-08-30T22:42:15.117Z,102437.28
2022-08-30T22:44:44.844Z,102438.06
2022-08-30T22:47:14.645Z,102429.16
2022-08-30T22:49:44.364Z,102431.75
2022-08-30T22:52:14.500Z,102433.41
2022-08-30T22:54:44.823Z,102434.22
2022-08-30T22:57:19.550Z,102427.84
2022-08-30T22:59:49.304Z,102435.78
2022-08-30T23:02:19.054Z,102440.09
2022-08-30T23:04:48.848Z,102438.25
2022-08-30T23:07:18.552Z,102434.56
2022-08-30T23:09:48.272Z,102444.22
2022-08-30T23:12:20.774Z,102440.53
2022-08-30T23:14:51.086Z,102443.00
2022-08-30T23:17:20.849Z,102451.72
2022-08-30T23:19:50.609Z,102439.13
2022-08-30T23:22:20.338Z,102439.84
2022-08-30T23:25:02.491Z,102441.47
2022-08-30T23:27:47.242Z,102445.75
2022-08-30T23:30:29.374Z,102450.03
2022-08-30T23:33:11.819Z,102457.03
2022-08-30T23:35:54.120Z,102448.84
2022-08-30T23:38:36.356Z,102453.13
2022-08-30T23:41:18.560Z,102455.66
2022-08-30T23:44:03.310Z,102447.50
2022-08-30T23:46:45.526Z,102451.69
2022-08-30T23:49:27.704Z,102448.94
2022-08-30T23:52:09.919Z,102450.56
2022-08-30T23:54:52.048Z,102444.19
2022-08-30T23:57:39.614Z,102448.56
